createdAt,value
2022-11-02T00:01:22.950Z,13.40
2022-11-02T00:03:50.984Z,13.30
2022-11-02T00:06:19.022Z,13.30
2022-11-02T00:08:47.108Z,13.30
2022-11-02T00:11:16.677Z,13.30
2022-11-02T00:13:44.694Z,13.30
2022-11-02T00:16:15.921Z,13.30
2022-11-02T00:18:46.808Z,13.30
2022-11-02T00:21:17.666Z,13.30
2022-11-02T00:23:46.618Z,13.30
2022-11-02T00:26:16.472Z,13.30
2022-11-02T00:28:44.824Z,13.30
2022-11-02T00:31:12.849Z,13.30
2022-11-02T00:33:40.806Z,13.30
2022-11-02T00:36:10.395Z,13.40
2022-11-02T00:38:38.404Z,13.30
2022-11-02T00:41:06.768Z,13.30
2022-11-02T00:43:36.150Z,13.40
2022-11-02T00:46:05.212Z,13.50
2022-11-02T00:48:33.300Z,13.50
2022-11-02T00:51:01.629Z,13.50
2022-11-02T00:53:31.005Z,13.50
2022-11-02T00:55:59.063Z,13.50
2022-11-02T00:58:27.086Z,13.60
2022-11-02T01:00:57.719Z,13.60
2022-11-02T01:03:26.990Z,13.60
2022-11-02T01:05:55.007Z,13.40
2022-11-02T01:08:23.339Z,13.50
2022-11-02T01:10:51.562Z,13.40
2022-11-02T01:13:19.669Z,13.40
2022-11-02T01:15:47.685Z,13.30
2022-11-02T01:18:17.029Z,13.40
2022-11-02T01:20:45.052Z,13.40
2022-11-02T01:23:13.533Z,13.40
2022-11-02T01:25:46.791Z,13.40
2022-11-02T01:28:15.029Z,13.50
2022-11-02T01:30:43.043Z,13.50
2022-11-02T01:33:12.870Z,13.40
2022-11-02T01:35:42.846Z,13.30
2022-11-02T01:38:10.892Z,13.30
2022-11-02T01:40:40.265Z,13.40
2022-11-02T01:43:21.965Z,13.30
2022-11-02T01:45:53.406Z,13.30
2022-11-02T01:48:27.376Z,13.40
2022-11-02T01:50:57.564Z,13.40
2022-11-02T01:53:25.603Z,13.30
2022-11-02T01:55:53.985Z,13.30
2022-11-02T01:58:22.307Z,13.30
2022-11-02T02:00:50.443Z,13.30
2022-11-02T02:03:21.288Z,13.40
2022-11-02T02:05:55.188Z,13.40
2022-11-02T02:08:26.225Z,13.50
2022-11-02T02:10:57.232Z,13.40
2022-11-02T02:13:27.760Z,13.40
2022-11-02T02:16:03.761Z,13.40
2022-11-02T02:18:38.792Z,13.40
2022-11-02T02:21:17.650Z,13.40
2022-11-02T02:24:07.496Z,13.30
2022-11-02T02:27:01.053Z,13.40
2022-11-02T02:29:36.243Z,13.50
2022-11-02T02:32:12.058Z,13.40
2022-11-02T02:34:47.330Z,13.30
2022-11-02T02:37:19.438Z,13.30
2022-11-02T02:39:53.103Z,13.30
2022-11-02T02:42:25.937Z,13.30
2022-11-02T02:45:02.132Z,13.30
2022-11-02T02:47:34.074Z,13.20
2022-11-02T02:50:06.757Z,13.20
2022-11-02T02:52:38.176Z,13.20
2022-11-02T02:55:08.062Z,13.20
2022-11-02T02:57:37.988Z,13.20
2022-11-02T03:00:14.508Z,13.20
2022-11-02T03:02:44.962Z,13.30
2022-11-02T03:05:26.709Z,13.30
2022-11-02T03:07:56.299Z,13.30
2022-11-02T03:10:33.619Z,13.30
2022-11-02T03:13:15.386Z,13.30
2022-11-02T03:15:51.340Z,13.40
2022-11-02T03:18:31.163Z,13.40
2022-11-02T03:21:07.779Z,13.40
2022-11-02T03:23:39.483Z,13.40
2022-11-02T03:26:14.670Z,13.50
2022-11-02T03:28:58.442Z,13.50
2022-11-02T03:31:34.756Z,13.50
2022-11-02T03:34:12.636Z,13.50
2022-11-02T03:36:46.309Z,13.40
2022-11-02T03:39:17.712Z,13.50
2022-11-02T03:41:48.670Z,13.50
2022-11-02T03:44:21.319Z,13.50
2022-11-02T03:46:52.349Z,13.50
2022-11-02T03:49:22.612Z,13.40
2022-11-02T03:51:52.740Z,13.50
2022-11-02T03:54:26.909Z,13.50
2022-11-02T03:57:00.254Z,13.50
2022-11-02T03:59:31.854Z,13.50
2022-11-02T04:02:02.930Z,13.40
2022-11-02T04:04:32.013Z,13.50
2022-11-02T04:07:00.041Z,13.50
2022-11-02T04:09:28.566Z,13.50
2022-11-02T04:12:14.241Z,13.50
2022-11-02T04:14:42.270Z,13.60
2022-11-02T04:17:35.812Z,13.60
2022-11-02T04:20:10.534Z,13.50
2022-11-02T04:22:57.079Z,13.50
2022-11-02T04:25:25.428Z,13.50
2022-11-02T04:28:13.053Z,13.60
2022-11-02T04:30:55.172Z,13.60
2022-11-02T04:33:32.672Z,13.60
2022-11-02T04:36:09.517Z,13.50
2022-11-02T04:38:41.403Z,13.50
2022-11-02T04:41:44.605Z,13.50
2022-11-02T04:44:47.768Z,13.50
2022-11-02T04:47:21.789Z,13.50
2022-11-02T04:49:51.252Z,13.40
2022-11-02T04:52:20.303Z,13.40
2022-11-02T04:54:51.706Z,13.40
2022-11-02T04:57:20.329Z,13.40
2022-11-02T04:59:48.717Z,13.30
2022-11-02T05:02:16.971Z,13.30
2022-11-02T05:04:45.541Z,13.40
2022-11-02T05:07:15.946Z,13.30
2022-11-02T05:09:43.989Z,13.30
2022-11-02T05:12:14.204Z,13.30
2022-11-02T05:14:42.236Z,13.40
2022-11-02T05:17:10.332Z,13.40
2022-11-02T05:19:39.867Z,13.30
2022-11-02T05:22:07.860Z,13.30
2022-11-02T05:24:37.311Z,13.40
2022-11-02T05:27:06.279Z,13.40
2022-11-02T05:29:37.121Z,13.30
2022-11-02T05:32:05.839Z,13.30
2022-11-02T05:34:34.636Z,13.20
2022-11-02T05:37:02.734Z,13.30
2022-11-02T05:39:30.870Z,13.20
2022-11-02T05:42:01.014Z,13.20
2022-11-02T05:44:29.280Z,13.10
2022-11-02T05:46:57.735Z,13.20
2022-11-02T05:49:25.874Z,13.20
2022-11-02T05:51:53.915Z,13.20
2022-11-02T05:54:22.207Z,13.20
2022-11-02T05:56:50.334Z,13.10
2022-11-02T05:59:19.685Z,13.10
2022-11-02T06:01:47.788Z,13.00
2022-11-02T06:04:15.846Z,13.00
2022-11-02T06:06:44.138Z,13.10
2022-11-02T06:09:12.120Z,13.10
2022-11-02T06:11:40.218Z,13.20
2022-11-02T06:14:08.254Z,13.10
2022-11-02T06:16:37.612Z,13.00
2022-11-02T06:19:05.610Z,13.10
2022-11-02T06:21:33.600Z,13.10
2022-11-02T06:24:01.801Z,13.00
2022-11-02T06:26:29.789Z,13.00
2022-11-02T06:28:57.772Z,13.10
2022-11-02T06:31:25.833Z,13.10
2022-11-02T06:33:55.164Z,13.00
2022-11-02T06:36:23.299Z,13.00
2022-11-02T06:38:51.458Z,13.00
2022-11-02T06:41:19.465Z,13.00
2022-11-02T06:43:47.466Z,13.00
2022-11-02T06:46:15.468Z,13.00
2022-11-02T06:48:43.484Z,13.00
2022-11-02T06:51:13.012Z,12.90
2022-11-02T06:53:41.031Z,13.00
2022-11-02T06:56:10.296Z,13.10
2022-11-02T06:58:38.306Z,13.10
2022-11-02T07:01:08.380Z,13.10
2022-11-02T07:03:36.730Z,13.10
2022-11-02T07:06:08.459Z,13.10
2022-11-02T07:08:40.603Z,13.10
2022-11-02T07:11:08.659Z,13.20
2022-11-02T07:13:37.132Z,13.10
2022-11-02T07:16:05.385Z,13.10
2022-11-02T07:18:33.406Z,13.10
2022-11-02T07:21:01.610Z,13.30
2022-11-02T07:23:29.685Z,13.40
2022-11-02T07:25:59.113Z,13.40
2022-11-02T07:28:27.143Z,13.40
2022-11-02T07:30:55.771Z,13.50
2022-11-02T07:33:23.844Z,13.50
2022-11-02T07:35:51.797Z,13.50
2022-11-02T07:38:19.802Z,13.50
2022-11-02T07:40:50.596Z,13.60
2022-11-02T07:43:20.006Z,13.70
2022-11-02T07:46:08.275Z,13.80
2022-11-02T07:48:36.809Z,13.80
2022-11-02T07:51:05.720Z,13.90
2022-11-02T07:53:33.742Z,13.90
2022-11-02T07:56:01.962Z,14.00
2022-11-02T07:58:31.326Z,14.00
2022-11-02T08:01:00.329Z,14.20
2022-11-02T08:03:28.601Z,14.20
2022-11-02T08:05:56.954Z,14.40
2022-11-02T08:08:25.625Z,14.50
2022-11-02T08:10:54.073Z,14.60
2022-11-02T08:13:25.842Z,14.70
2022-11-02T08:15:55.828Z,14.70
2022-11-02T08:18:25.559Z,14.70
2022-11-02T08:20:56.448Z,14.70
2022-11-02T08:23:25.374Z,14.60
2022-11-02T08:25:54.524Z,14.60
2022-11-02T08:28:25.280Z,14.60
2022-11-02T08:30:55.199Z,14.50
2022-11-02T08:33:23.228Z,14.40
2022-11-02T08:35:53.104Z,14.40
2022-11-02T08:38:22.897Z,14.40
2022-11-02T08:40:50.998Z,14.60
2022-11-02T08:43:19.014Z,14.70
2022-11-02T08:48:37.274Z,14.70
2022-11-02T08:51:08.709Z,14.80
2022-11-02T08:53:36.994Z,14.90
2022-11-02T08:56:05.439Z,15.00
2022-11-02T08:58:33.497Z,15.10
2022-11-02T09:01:01.505Z,15.10
2022-11-02T09:03:29.973Z,15.10
2022-11-02T09:06:01.163Z,15.10
2022-11-02T09:08:29.647Z,15.00
2022-11-02T09:11:01.228Z,15.00
2022-11-02T09:13:29.745Z,14.90
2022-11-02T09:15:59.386Z,15.00
2022-11-02T09:18:27.865Z,15.10
2022-11-02T09:20:56.115Z,15.00
2022-11-02T09:23:25.454Z,15.00
2022-11-02T09:25:53.610Z,15.10
2022-11-02T09:28:21.948Z,15.20
2022-11-02T09:30:50.179Z,15.20
2022-11-02T09:33:18.676Z,15.30
2022-11-02T09:35:48.421Z,15.30
2022-11-02T09:38:18.278Z,15.40
2022-11-02T09:40:54.231Z,15.40
2022-11-02T09:43:34.258Z,15.40
2022-11-02T09:46:06.336Z,15.40
2022-11-02T09:48:37.845Z,15.30
2022-11-02T09:51:12.023Z,15.30
2022-11-02T09:53:51.768Z,15.30
2022-11-02T09:56:21.122Z,15.40
2022-11-02T09:58:56.915Z,15.40
2022-11-02T10:01:35.582Z,15.50
2022-11-02T10:04:21.920Z,15.40
2022-11-02T10:06:57.521Z,15.40
2022-11-02T10:09:33.297Z,15.40
2022-11-02T10:12:09.782Z,15.30
2022-11-02T10:14:44.613Z,15.30
2022-11-02T10:17:16.166Z,15.40
2022-11-02T10:19:49.550Z,15.40
2022-11-02T10:22:17.586Z,15.50
2022-11-02T10:24:46.952Z,15.40
2022-11-02T10:27:21.133Z,15.40
2022-11-02T10:29:57.735Z,15.40
2022-11-02T10:32:25.797Z,15.40
2022-11-02T10:34:59.263Z,15.40
2022-11-02T10:37:54.007Z,15.40
2022-11-02T10:40:35.355Z,15.40
2022-11-02T10:43:16.804Z,15.40
2022-11-02T10:45:57.763Z,15.40
2022-11-02T10:48:36.236Z,15.40
2022-11-02T10:51:10.373Z,15.40
2022-11-02T10:53:42.660Z,15.30
2022-11-02T10:56:19.864Z,15.40
2022-11-02T10:58:58.900Z,15.30
2022-11-02T11:01:27.504Z,15.30
2022-11-02T11:04:01.203Z,15.30
2022-11-02T11:06:32.183Z,15.40
2022-11-02T11:09:02.168Z,15.30
2022-11-02T11:11:33.766Z,15.30
2022-11-02T11:16:55.518Z,15.30
2022-11-02T11:22:24.939Z,15.30
2022-11-02T11:24:53.020Z,15.30
2022-11-02T11:27:22.184Z,15.20
2022-11-02T11:29:55.071Z,15.20
2022-11-02T11:32:30.209Z,15.20
2022-11-02T11:35:01.846Z,15.10
2022-11-02T11:37:30.031Z,15.20
2022-11-02T11:40:00.980Z,15.20
2022-11-02T11:42:31.851Z,15.10
2022-11-02T11:45:04.902Z,15.20
2022-11-02T11:47:36.686Z,15.30
2022-11-02T11:50:13.944Z,15.30
2022-11-02T11:52:44.250Z,15.30
2022-11-02T11:55:23.966Z,15.30
2022-11-02T11:58:15.123Z,15.30
2022-11-02T12:00:44.822Z,15.30
2022-11-02T12:03:16.267Z,15.30
2022-11-02T12:05:55.990Z,15.30
2022-11-02T12:08:33.324Z,15.40
2022-11-02T12:11:32.539Z,15.50
2022-11-02T12:14:14.206Z,15.50
2022-11-02T12:17:01.967Z,15.60
2022-11-02T12:19:49.047Z,15.60
2022-11-02T12:22:25.546Z,15.70
2022-11-02T12:25:12.725Z,15.70
2022-11-02T12:27:48.184Z,15.70
2022-11-02T12:30:19.751Z,15.80
2022-11-02T12:33:06.280Z,15.80
2022-11-02T12:35:55.065Z,15.80
2022-11-02T12:38:44.434Z,15.80
2022-11-02T12:41:14.574Z,15.80
2022-11-02T12:43:45.071Z,15.80
2022-11-02T12:46:38.814Z,15.70
2022-11-02T12:49:27.912Z,15.80
2022-11-02T12:52:07.164Z,15.80
2022-11-02T12:54:41.861Z,15.90
2022-11-02T12:57:15.770Z,15.90
2022-11-02T12:59:45.802Z,15.90
2022-11-02T13:02:18.957Z,15.90
2022-11-02T13:04:52.317Z,15.90
2022-11-02T13:07:26.039Z,15.90
2022-11-02T13:10:00.212Z,16.00
2022-11-02T13:12:28.941Z,16.00
2022-11-02T13:14:58.955Z,16.00
2022-11-02T13:17:34.488Z,16.00
2022-11-02T13:20:12.822Z,16.00
2022-11-02T13:22:43.292Z,16.00
2022-11-02T13:25:18.214Z,16.00
2022-11-02T13:27:53.260Z,16.00
2022-11-02T13:30:21.595Z,16.00
2022-11-02T13:32:57.731Z,16.00
2022-11-02T13:35:31.197Z,16.00
2022-11-02T13:38:04.605Z,16.00
2022-11-02T13:40:38.089Z,16.00
2022-11-02T13:43:39.351Z,16.00
2022-11-02T13:46:28.316Z,16.00
2022-11-02T13:49:02.399Z,16.00
2022-11-02T13:51:37.437Z,15.90
2022-11-02T13:54:13.048Z,15.90
2022-11-02T13:56:42.449Z,15.90
2022-11-02T13:59:19.052Z,15.90
2022-11-02T14:01:47.993Z,15.80
2022-11-02T14:04:17.406Z,15.80
2022-11-02T14:06:54.959Z,15.80
2022-11-02T14:09:30.320Z,15.70
2022-11-02T14:12:29.161Z,15.70
2022-11-02T14:15:48.899Z,15.70
2022-11-02T14:18:30.950Z,15.70
2022-11-02T14:20:59.849Z,15.80
2022-11-02T14:23:41.843Z,15.90
2022-11-02T14:26:53.306Z,15.90
2022-11-02T14:29:54.473Z,15.90
2022-11-02T14:32:41.035Z,15.80
2022-11-02T14:35:26.797Z,15.90
2022-11-02T14:38:32.544Z,15.90
2022-11-02T14:41:16.258Z,15.90
2022-11-02T14:44:14.084Z,15.90
2022-11-02T14:46:56.587Z,15.80
2022-11-02T14:49:28.405Z,15.80
2022-11-02T14:52:04.194Z,15.80
2022-11-02T14:54:38.555Z,15.80
2022-11-02T14:57:20.102Z,15.70
2022-11-02T14:59:51.689Z,15.70
2022-11-02T15:02:24.734Z,15.70
2022-11-02T15:04:55.267Z,15.70
2022-11-02T15:07:27.648Z,15.70
2022-11-02T15:09:58.412Z,15.70
2022-11-02T15:12:38.533Z,15.70
2022-11-02T15:15:29.641Z,15.60
2022-11-02T15:18:17.238Z,15.50
2022-11-02T15:20:46.498Z,15.50
2022-11-02T15:23:31.081Z,15.50
2022-11-02T15:26:00.948Z,15.50
2022-11-02T15:28:34.457Z,15.50
2022-11-02T15:31:07.481Z,15.50
2022-11-02T15:33:39.341Z,15.30
2022-11-02T15:36:12.927Z,15.30
2022-11-02T15:38:41.161Z,15.30
2022-11-02T15:41:21.366Z,15.20
2022-11-02T15:44:14.895Z,15.20
2022-11-02T15:46:57.144Z,15.20
2022-11-02T15:49:56.813Z,15.20
2022-11-02T15:53:16.457Z,15.20
2022-11-02T15:55:48.364Z,15.20
2022-11-02T15:58:29.842Z,15.20
2022-11-02T16:01:24.635Z,15.10
2022-11-02T16:03:58.676Z,15.10
2022-11-02T16:06:28.488Z,15.00
2022-11-02T16:08:58.022Z,15.00
2022-11-02T16:11:26.411Z,14.90
2022-11-02T16:14:08.587Z,14.90
2022-11-02T16:16:48.966Z,14.90
2022-11-02T16:19:20.947Z,14.80
2022-11-02T16:21:49.794Z,14.70
2022-11-02T16:24:19.090Z,14.60
2022-11-02T16:26:49.154Z,14.60
2022-11-02T16:29:27.771Z,14.50
2022-11-02T16:31:57.412Z,14.60
2022-11-02T16:34:29.397Z,14.60
2022-11-02T16:36:57.905Z,14.70
2022-11-02T16:39:30.228Z,14.60
2022-11-02T16:42:01.686Z,14.60
2022-11-02T16:44:32.067Z,14.50
2022-11-02T16:47:16.524Z,14.30
2022-11-02T16:49:59.549Z,14.20
2022-11-02T16:52:32.668Z,14.20
2022-11-02T16:55:00.912Z,14.30
2022-11-02T16:57:32.256Z,14.30
2022-11-02T17:00:02.299Z,14.20
2022-11-02T17:02:35.474Z,14.10
2022-11-02T17:05:06.615Z,14.20
2022-11-02T17:07:39.919Z,14.20
2022-11-02T17:10:10.289Z,14.20
2022-11-02T17:12:43.143Z,14.20
2022-11-02T17:15:17.054Z,14.20
2022-11-02T17:17:46.915Z,14.10
2022-11-02T17:20:24.242Z,14.00
2022-11-02T17:22:55.857Z,13.90
2022-11-02T17:25:26.152Z,13.80
2022-11-02T17:27:55.689Z,13.80
2022-11-02T17:30:46.501Z,13.80
2022-11-02T17:33:27.819Z,13.90
2022-11-02T17:35:57.822Z,13.90
2022-11-02T17:38:28.320Z,14.00
2022-11-02T17:40:56.786Z,13.90
2022-11-02T17:43:24.250Z,13.90
2022-11-02T17:45:57.077Z,13.80
2022-11-02T17:48:28.806Z,13.90
2022-11-02T17:50:59.548Z,13.90
2022-11-02T17:53:28.229Z,13.90
2022-11-02T17:55:57.484Z,13.90
2022-11-02T17:58:25.482Z,13.70
2022-11-02T18:00:54.673Z,13.60
2022-11-02T18:03:29.880Z,13.50
2022-11-02T18:06:00.938Z,13.50
2022-11-02T18:08:29.770Z,13.50
2022-11-02T18:10:58.058Z,13.50
2022-11-02T18:13:26.149Z,13.50
2022-11-02T18:15:54.266Z,13.40
2022-11-02T18:18:22.284Z,13.40
2022-11-02T18:20:50.305Z,13.40
2022-11-02T18:23:20.298Z,13.30
2022-11-02T18:25:48.666Z,13.20
2022-11-02T18:28:16.992Z,13.20
2022-11-02T18:30:45.362Z,13.20
2022-11-02T18:33:14.380Z,13.30
2022-11-02T18:35:44.017Z,13.40
2022-11-02T18:38:12.672Z,13.50
2022-11-02T18:40:42.107Z,13.40
2022-11-02T18:43:10.500Z,13.30
2022-11-02T18:45:38.729Z,13.30
2022-11-02T18:48:07.827Z,13.30
2022-11-02T18:50:36.070Z,13.30
2022-11-02T18:53:04.176Z,13.30
2022-11-02T18:55:32.205Z,13.20
2022-11-02T18:58:01.614Z,13.20
2022-11-02T19:00:29.643Z,13.20
2022-11-02T19:02:57.669Z,13.20
2022-11-02T19:05:43.878Z,13.20
2022-11-02T19:08:29.203Z,13.30
2022-11-02T19:10:57.388Z,13.30
2022-11-02T19:13:26.759Z,13.30
2022-11-02T19:15:54.891Z,13.30
2022-11-02T19:18:22.944Z,13.20
2022-11-02T19:20:50.959Z,13.20
2022-11-02T19:23:19.144Z,13.20
2022-11-02T19:25:51.386Z,13.10
2022-11-02T19:28:19.517Z,13.10
2022-11-02T19:30:48.846Z,13.10
2022-11-02T19:33:16.860Z,13.00
2022-11-02T19:35:54.465Z,13.10
2022-11-02T19:38:23.395Z,13.00
2022-11-02T19:41:01.332Z,13.10
2022-11-02T19:43:29.392Z,13.20
2022-11-02T19:46:02.833Z,13.20
2022-11-02T19:48:31.511Z,13.10
2022-11-02T19:51:07.066Z,13.10
2022-11-02T19:53:35.957Z,13.00
2022-11-02T19:56:05.231Z,12.90
2022-11-02T19:58:33.705Z,12.90
2022-11-02T20:01:08.384Z,12.80
2022-11-02T20:03:36.896Z,12.90
2022-11-02T20:06:06.484Z,12.90
2022-11-02T20:08:34.774Z,12.90
2022-11-02T20:11:04.051Z,12.80
2022-11-02T20:13:34.437Z,12.90
2022-11-02T20:16:02.630Z,12.80
2022-11-02T20:18:32.571Z,12.90
2022-11-02T20:21:05.079Z,12.90
2022-11-02T20:23:33.715Z,12.70
2022-11-02T20:26:02.922Z,12.70
2022-11-02T20:28:31.484Z,12.80
2022-11-02T20:30:59.581Z,12.80
2022-11-02T20:33:27.621Z,12.80
2022-11-02T20:35:57.028Z,12.90
2022-11-02T20:38:25.073Z,12.90
2022-11-02T20:40:53.243Z,12.90
2022-11-02T20:43:21.287Z,12.80
2022-11-02T20:45:49.396Z,12.80
2022-11-02T20:48:17.531Z,12.80
2022-11-02T20:50:46.010Z,12.70
2022-11-02T20:53:15.381Z,12.60
2022-11-02T20:55:43.688Z,12.50
2022-11-02T20:58:11.714Z,12.50
2022-11-02T21:00:40.075Z,12.50
2022-11-02T21:03:08.431Z,12.50
2022-11-02T21:05:36.618Z,12.20
2022-11-02T21:08:04.771Z,12.30
2022-11-02T21:10:34.139Z,12.40
2022-11-02T21:13:31.155Z,12.50
2022-11-02T21:16:03.577Z,12.50
2022-11-02T21:18:33.429Z,12.40
2022-11-02T21:21:05.273Z,12.50
2022-11-02T21:23:33.556Z,12.60
2022-11-02T21:26:05.060Z,12.70
2022-11-02T21:31:10.781Z,12.70
2022-11-02T21:33:39.162Z,12.60
2022-11-02T21:36:07.781Z,12.50
2022-11-02T21:38:36.253Z,12.30
2022-11-02T21:41:07.741Z,12.40
2022-11-02T21:43:37.389Z,12.30
2022-11-02T21:46:07.083Z,12.30
2022-11-02T21:48:36.655Z,12.40
2022-11-02T21:51:06.742Z,12.30
2022-11-02T21:53:36.030Z,12.30
2022-11-02T21:56:07.402Z,12.30
2022-11-02T21:58:35.904Z,12.40
2022-11-02T22:01:24.486Z,12.40
2022-11-02T22:03:53.197Z,12.40
2022-11-02T22:06:25.897Z,12.30
2022-11-02T22:08:56.646Z,12.20
2022-11-02T22:11:28.092Z,12.30
2022-11-02T22:13:57.647Z,12.40
2022-11-02T22:16:27.898Z,12.30
2022-11-02T22:18:57.693Z,12.20
2022-11-02T22:21:29.176Z,12.30
2022-11-02T22:23:57.721Z,12.40
2022-11-02T22:26:29.054Z,12.50
2022-11-02T22:28:58.056Z,12.50
2022-11-02T22:31:28.518Z,12.50
2022-11-02T22:33:58.123Z,12.60
2022-11-02T22:36:27.780Z,12.40
2022-11-02T22:38:56.070Z,12.30
2022-11-02T22:41:27.548Z,12.30
2022-11-02T22:43:57.680Z,12.20
2022-11-02T22:46:27.065Z,12.10
2022-11-02T22:48:56.641Z,12.20
2022-11-02T22:51:26.772Z,12.20
2022-11-02T22:53:55.476Z,12.20
2022-11-02T22:56:24.431Z,12.30
2022-11-02T22:58:53.900Z,12.30
2022-11-02T23:01:23.926Z,12.40
2022-11-02T23:03:52.414Z,12.40
2022-11-02T23:06:22.137Z,12.40
2022-11-02T23:08:51.879Z,12.60
2022-11-02T23:11:24.258Z,12.50
2022-11-02T23:13:56.990Z,12.60
2022-11-02T23:16:28.322Z,12.60
2022-11-02T23:19:19.059Z,12.50
2022-11-02T23:22:13.984Z,12.50
2022-11-02T23:25:01.740Z,12.40
2022-11-02T23:27:30.610Z,12.30
2022-11-02T23:30:17.848Z,12.30
2022-11-02T23:32:45.994Z,12.40
2022-11-02T23:35:31.652Z,12.20
2022-11-02T23:38:04.757Z,12.20
2022-11-02T23:40:33.425Z,12.20
2022-11-02T23:43:01.527Z,12.20
2022-11-02T23:45:30.877Z,12.10
2022-11-02T23:48:00.547Z,12.10
2022-11-02T23:50:48.968Z,12.00
2022-11-02T23:53:36.878Z,12.00
2022-11-02T23:56:23.650Z,11.90
2022-11-02T23:59:06.512Z,12.20
